createdAt,value
2023-02-01T00:04:49.596Z,0
2023-02-01T00:19:45.603Z,0
2023-02-01T00:34:41.671Z,0
2023-02-01T00:49:38.346Z,0
2023-02-01T01:04:35.074Z,0
2023-02-01T01:19:31.649Z,0
2023-02-01T01:34:27.962Z,0
2023-02-01T01:49:23.933Z,0
2023-02-01T02:04:20.175Z,0
2023-02-01T02:19:15.925Z,0
2023-02-01T02:34:12.191Z,0.01
2023-02-01T02:49:08.370Z,0
2023-02-01T03:04:04.388Z,0
2023-02-01T03:19:00.814Z,0
2023-02-01T03:33:57.406Z,0
2023-02-01T03:48:52.972Z,0
2023-02-01T04:03:49.042Z,0
2023-02-01T04:18:45.345Z,0
2023-02-01T04:33:41.359Z,0
2023-02-01T04:48:37.578Z,0
2023-02-01T05:03:33.495Z,0
2023-02-01T05:18:29.818Z,0
2023-02-01T05:33:26.160Z,0
2023-02-01T05:48:22.916Z,0
2023-02-01T06:03:18.969Z,0
2023-02-01T06:18:14.861Z,0
2023-02-01T06:33:11.119Z,0
2023-02-01T06:48:07.690Z,0.02
2023-02-01T07:03:03.636Z,0
2023-02-01T07:18:00.163Z,0.03
2023-02-01T07:32:56.378Z,0.03
2023-02-01T07:47:52.927Z,0.05
2023-02-01T08:02:49.025Z,0.13
2023-02-01T08:17:47.587Z,0.06
2023-02-01T08:32:42.259Z,0.06
2023-02-01T08:47:38.433Z,0.08
2023-02-01T09:02:35.169Z,0.1
2023-02-01T09:17:31.808Z,0.1
2023-02-01T09:32:28.009Z,0.07
2023-02-01T09:47:24.315Z,0.08
2023-02-01T10:02:20.789Z,0.06
2023-02-01T10:17:17.157Z,0.12
2023-02-01T10:32:14.032Z,0.13
2023-02-01T10:47:10.390Z,0.19
2023-02-01T11:02:06.666Z,0.19
2023-02-01T11:17:03.079Z,0.18
2023-02-01T11:31:59.902Z,0.18
2023-02-01T11:46:56.860Z,0.13
2023-02-01T12:01:53.409Z,0.2
2023-02-01T12:16:49.496Z,0.1
2023-02-01T12:31:47.326Z,0.1
2023-02-01T12:46:41.576Z,0.1
2023-02-01T13:16:34.568Z,0.05
2023-02-01T13:31:30.816Z,0.1
2023-02-01T13:46:27.080Z,0.06
2023-02-01T14:01:22.726Z,0.04
2023-02-01T14:16:18.859Z,0.05
2023-02-01T14:31:14.768Z,0.05
2023-02-01T14:46:10.283Z,0.03
2023-02-01T15:01:06.797Z,0.05
2023-02-01T15:16:02.654Z,0.01
2023-02-01T15:30:58.856Z,0.04
2023-02-01T15:45:54.678Z,0.03
2023-02-01T16:00:50.367Z,0.02
2023-02-01T16:15:46.305Z,0.01
2023-02-01T16:30:42.236Z,0
2023-02-01T16:45:38.518Z,0.01
2023-02-01T17:00:34.426Z,0
2023-02-01T17:15:30.435Z,0
2023-02-01T17:30:26.395Z,0
2023-02-01T17:45:22.685Z,0
2023-02-01T18:00:18.230Z,0
2023-02-01T18:15:14.494Z,0
2023-02-01T18:30:10.276Z,0
2023-02-01T18:45:06.121Z,0
2023-02-01T19:00:02.227Z,0
2023-02-01T19:14:58.684Z,0
2023-02-01T19:29:55.108Z,0
2023-02-01T19:44:51.327Z,0
2023-02-01T19:59:47.388Z,0
2023-02-01T20:14:42.717Z,0
2023-02-01T20:29:39.353Z,0
2023-02-01T20:44:36.322Z,0
2023-02-01T20:59:32.819Z,0
2023-02-01T21:14:29.155Z,0
2023-02-01T21:29:25.868Z,0
2023-02-01T21:44:21.961Z,0
2023-02-01T21:59:18.447Z,0
2023-02-01T22:14:15.085Z,0
2023-02-01T22:29:11.068Z,0
2023-02-01T22:44:07.390Z,0
2023-02-01T23:13:59.582Z,0
2023-02-01T23:28:55.875Z,0
2023-02-01T23:43:51.899Z,0
2023-02-01T23:58:48.585Z,0
